Terminal Aerodrome Forecast
Issued by NWS

Home | Current Version | Previous Version | Text Only | Print | Product List | Glossary On
Versions: 1 2 3 4 5 6 7 8 9 10 11 12 13
000
FTUS42 TJSJ 071747
TAFISX
TAF
TISX 071747Z 0718/0818 08016G25KT P6SM FEW040
     FM072300 06014KT P6SM FEW025
     FM081000 06006KT P6SM SCT025=

USA.gov is the U.S. government's official web portal to all federal, state and local government web resources and services.